createdAt,value
2022-08-16T00:01:43.589Z,21.05
2022-08-16T00:04:12.378Z,20.99
2022-08-16T00:06:40.590Z,20.95
2022-08-16T00:09:10.826Z,20.95
2022-08-16T00:11:43.080Z,20.94
2022-08-16T00:14:24.208Z,20.71
2022-08-16T00:17:15.566Z,20.77
2022-08-16T00:19:47.581Z,20.82
2022-08-16T00:22:25.348Z,20.69
2022-08-16T00:24:54.774Z,20.64
2022-08-16T00:27:23.824Z,20.80
2022-08-16T00:30:00.803Z,20.69
2022-08-16T00:32:40.085Z,20.71
2022-08-16T00:35:15.985Z,20.72
2022-08-16T00:37:56.630Z,20.71
2022-08-16T00:40:50.737Z,20.65
2022-08-16T00:43:43.340Z,20.63
2022-08-16T00:47:02.441Z,20.63
2022-08-16T00:49:39.613Z,20.69
2022-08-16T00:52:30.310Z,20.69
2022-08-16T00:55:00.769Z,20.70
2022-08-16T00:57:58.773Z,20.64
2022-08-16T01:00:19.956Z,20.46
2022-08-16T01:02:48.992Z,20.48
2022-08-16T01:05:16.587Z,20.42
2022-08-16T01:07:51.861Z,20.53
2022-08-16T01:10:31.591Z,20.30
2022-08-16T01:13:15.762Z,20.26
2022-08-16T01:16:10.826Z,20.43
2022-08-16T01:19:07.908Z,20.50
2022-08-16T01:22:48.426Z,20.48
2022-08-16T01:25:41.176Z,20.41
2022-08-16T01:28:20.013Z,20.45
2022-08-16T01:30:57.460Z,20.32
2022-08-16T01:33:33.499Z,20.35
2022-08-16T01:36:11.973Z,20.21
2022-08-16T01:38:56.786Z,20.37
2022-08-16T01:41:31.361Z,20.34
2022-08-16T01:44:01.047Z,20.28
2022-08-16T01:46:44.142Z,20.16
2022-08-16T01:49:42.854Z,20.11
2022-08-16T01:52:29.654Z,20.17
2022-08-16T01:54:59.788Z,20.16
2022-08-16T01:57:31.712Z,20.10
2022-08-16T02:00:01.002Z,20.16
2022-08-16T02:02:29.106Z,20.19
2022-08-16T02:05:00.168Z,20.13
2022-08-16T02:07:28.265Z,20.16
2022-08-16T02:09:59.808Z,20.05
2022-08-16T02:12:50.072Z,19.97
2022-08-16T02:15:25.937Z,20.01
2022-08-16T02:18:01.167Z,20.09
2022-08-16T02:20:35.567Z,19.95
2022-08-16T02:23:07.940Z,20.09
2022-08-16T02:25:50.847Z,19.96
2022-08-16T02:28:23.619Z,19.95
2022-08-16T02:30:53.437Z,19.98
2022-08-16T02:33:42.909Z,20.06
2022-08-16T02:36:49.851Z,20.07
2022-08-16T02:39:05.723Z,19.73
2022-08-16T02:41:37.371Z,19.90
2022-08-16T02:44:07.555Z,19.86
2022-08-16T02:46:34.955Z,19.79
2022-08-16T02:49:02.945Z,19.85
2022-08-16T02:51:35.759Z,19.84
2022-08-16T02:54:04.150Z,19.68
2022-08-16T02:56:33.263Z,19.79
2022-08-16T02:59:02.314Z,19.75
2022-08-16T03:01:39.157Z,19.78
2022-08-16T03:04:41.434Z,19.73
2022-08-16T03:06:56.835Z,19.72
2022-08-16T03:09:28.653Z,19.74
2022-08-16T03:11:57.796Z,19.85
2022-08-16T03:14:26.217Z,19.70
2022-08-16T03:16:59.600Z,19.69
2022-08-16T03:19:48.196Z,19.73
2022-08-16T03:22:28.796Z,19.75
2022-08-16T03:25:02.342Z,19.77
2022-08-16T03:27:32.988Z,19.87
2022-08-16T03:30:21.233Z,19.72
2022-08-16T03:32:51.520Z,19.64
2022-08-16T03:35:32.402Z,19.63
2022-08-16T03:38:32.674Z,19.59
2022-08-16T03:40:56.358Z,19.61
2022-08-16T03:43:52.003Z,19.63
2022-08-16T03:46:48.214Z,19.70
2022-08-16T03:49:05.240Z,19.59
2022-08-16T03:51:34.967Z,19.64
2022-08-16T03:54:04.717Z,19.59
2022-08-16T03:56:57.697Z,19.50
2022-08-16T03:59:29.279Z,19.39
2022-08-16T04:02:00.891Z,19.48
2022-08-16T04:04:33.079Z,19.46
2022-08-16T04:07:07.523Z,19.49
2022-08-16T04:09:38.105Z,19.49
2022-08-16T04:12:11.390Z,19.55
2022-08-16T04:14:55.209Z,19.61
2022-08-16T04:17:24.210Z,19.56
2022-08-16T04:19:54.897Z,19.50
2022-08-16T04:22:27.448Z,19.53
2022-08-16T04:24:55.576Z,19.50
2022-08-16T04:27:31.506Z,19.60
2022-08-16T04:30:02.855Z,19.50
2022-08-16T04:32:31.492Z,19.52
2022-08-16T04:35:01.205Z,19.37
2022-08-16T04:37:32.209Z,19.53
2022-08-16T04:40:21.838Z,19.41
2022-08-16T04:42:54.831Z,19.37
2022-08-16T04:45:35.642Z,19.53
2022-08-16T04:48:05.392Z,19.49
2022-08-16T04:50:32.770Z,19.51
2022-08-16T04:53:00.570Z,19.42
2022-08-16T04:55:37.870Z,19.26
2022-08-16T04:58:44.277Z,19.29
2022-08-16T05:00:56.974Z,19.45
2022-08-16T05:03:24.580Z,19.45
2022-08-16T05:05:59.519Z,19.44
2022-08-16T05:08:33.177Z,19.47
2022-08-16T05:11:08.260Z,19.46
2022-08-16T05:13:42.557Z,19.36
2022-08-16T05:16:24.102Z,19.44
2022-08-16T05:18:56.538Z,19.23
2022-08-16T05:21:26.964Z,19.45
2022-08-16T05:24:00.128Z,19.42
2022-08-16T05:26:32.143Z,19.52
2022-08-16T05:29:03.419Z,19.55
2022-08-16T05:31:31.884Z,19.32
2022-08-16T05:34:04.641Z,19.51
2022-08-16T05:36:36.869Z,19.62
2022-08-16T05:39:09.761Z,19.44
2022-08-16T05:41:44.542Z,19.57
2022-08-16T05:44:23.140Z,19.64
2022-08-16T05:47:01.153Z,19.65
2022-08-16T05:49:38.610Z,19.76
2022-08-16T05:52:11.424Z,19.91
2022-08-16T05:54:47.129Z,19.99
2022-08-16T05:57:20.540Z,19.85
2022-08-16T05:59:50.300Z,19.96
2022-08-16T06:02:30.696Z,20.01
2022-08-16T06:05:01.984Z,20.09
2022-08-16T06:07:29.655Z,20.14
2022-08-16T06:10:01.450Z,20.22
2022-08-16T06:12:30.985Z,20.24
2022-08-16T06:15:15.075Z,20.22
2022-08-16T06:17:46.408Z,20.28
2022-08-16T06:20:34.877Z,20.31
2022-08-16T06:23:16.979Z,20.32
2022-08-16T06:25:53.251Z,20.41
2022-08-16T06:28:35.032Z,20.37
2022-08-16T06:31:05.047Z,20.45
2022-08-16T06:33:41.902Z,20.55
2022-08-16T06:36:14.726Z,20.52
2022-08-16T06:38:56.035Z,20.72
2022-08-16T06:41:27.338Z,20.84
2022-08-16T06:43:56.526Z,20.54
2022-08-16T06:46:39.205Z,20.49
2022-08-16T06:49:11.849Z,20.59
2022-08-16T06:51:46.375Z,20.70
2022-08-16T06:54:16.942Z,20.66
2022-08-16T06:56:44.769Z,20.72
2022-08-16T06:59:13.652Z,20.80
2022-08-16T07:01:54.159Z,20.92
2022-08-16T07:04:33.420Z,20.98
2022-08-16T07:07:06.271Z,20.98
2022-08-16T07:09:37.204Z,21.02
2022-08-16T07:12:06.177Z,21.03
2022-08-16T07:14:35.129Z,21.05
2022-08-16T07:17:11.322Z,21.14
2022-08-16T07:20:02.480Z,21.12
2022-08-16T07:22:39.068Z,21.26
2022-08-16T07:25:14.050Z,21.41
2022-08-16T07:27:43.593Z,21.41
2022-08-16T07:30:39.469Z,21.37
2022-08-16T07:33:06.986Z,21.54
2022-08-16T07:35:34.831Z,21.54
2022-08-16T07:38:06.255Z,21.60
2022-08-16T07:41:00.698Z,21.66
2022-08-16T07:43:28.790Z,21.87
2022-08-16T07:45:58.272Z,21.79
2022-08-16T07:48:27.357Z,21.85
2022-08-16T07:50:59.621Z,21.88
2022-08-16T07:53:33.885Z,22.02
2022-08-16T07:56:11.094Z,22.02
2022-08-16T07:58:38.491Z,22.14
2022-08-16T08:01:10.819Z,22.26
2022-08-16T08:03:49.382Z,22.23
2022-08-16T08:06:24.736Z,22.34
2022-08-16T08:08:57.171Z,22.35
2022-08-16T08:11:30.044Z,22.43
2022-08-16T08:14:03.731Z,22.47
2022-08-16T08:16:35.606Z,22.54
2022-08-16T08:19:04.441Z,22.62
2022-08-16T08:21:59.806Z,22.75
2022-08-16T08:24:32.323Z,22.77
2022-08-16T08:27:05.475Z,22.90
2022-08-16T08:29:40.520Z,23.07
2022-08-16T08:32:58.546Z,23.11
2022-08-16T08:35:00.223Z,23.12
2022-08-16T08:37:54.411Z,23.14
2022-08-16T08:40:29.384Z,23.17
2022-08-16T08:43:12.514Z,23.26
2022-08-16T08:45:48.477Z,23.33
2022-08-16T08:48:34.455Z,23.43
2022-08-16T08:51:10.053Z,23.50
2022-08-16T08:53:39.736Z,23.50
2022-08-16T08:56:23.738Z,23.64
2022-08-16T08:59:00.014Z,23.72
2022-08-16T09:01:36.745Z,23.76
2022-08-16T09:04:14.564Z,23.96
2022-08-16T09:06:45.288Z,23.95
2022-08-16T09:09:17.163Z,24.00
2022-08-16T09:11:53.846Z,24.07
2022-08-16T09:14:33.756Z,24.17
2022-08-16T09:17:14.201Z,24.12
2022-08-16T09:19:53.702Z,24.21
2022-08-16T09:22:28.514Z,24.27
2022-08-16T09:25:10.966Z,24.27
2022-08-16T09:27:57.370Z,24.38
2022-08-16T09:30:34.042Z,24.48
2022-08-16T09:33:07.607Z,24.52
2022-08-16T09:35:39.091Z,24.47
2022-08-16T09:38:08.311Z,24.68
2022-08-16T09:40:41.797Z,24.62
2022-08-16T09:43:53.278Z,24.71
2022-08-16T09:46:45.173Z,24.77
2022-08-16T09:48:56.705Z,24.79
2022-08-16T09:51:30.769Z,24.85
2022-08-16T09:54:09.716Z,24.95
2022-08-16T09:56:52.523Z,25.03
2022-08-16T09:59:25.476Z,25.06
2022-08-16T10:01:58.037Z,25.11
2022-08-16T10:04:30.185Z,25.14
2022-08-16T10:07:15.317Z,25.10
2022-08-16T10:09:55.232Z,25.29
2022-08-16T10:12:55.825Z,25.31
2022-08-16T10:15:26.017Z,25.37
2022-08-16T10:18:01.316Z,25.60
2022-08-16T10:20:40.947Z,25.66
2022-08-16T10:23:17.229Z,25.70
2022-08-16T10:27:16.550Z,25.79
2022-08-16T10:28:40.236Z,25.81
2022-08-16T10:31:16.689Z,26.04
2022-08-16T10:34:01.017Z,26.13
2022-08-16T10:36:39.103Z,26.19
2022-08-16T10:39:08.612Z,26.30
2022-08-16T10:41:36.051Z,26.41
2022-08-16T10:44:04.478Z,26.59
2022-08-16T10:46:41.478Z,26.71
2022-08-16T10:49:18.134Z,26.79
2022-08-16T10:52:02.717Z,26.76
2022-08-16T10:54:58.554Z,26.81
2022-08-16T10:57:24.650Z,26.94
2022-08-16T10:59:58.278Z,27.12
2022-08-16T11:03:37.598Z,27.18
2022-08-16T11:05:17.849Z,27.31
2022-08-16T11:07:53.619Z,27.47
2022-08-16T11:19:05.499Z,27.97
2022-08-16T11:22:22.829Z,27.98
2022-08-16T11:24:40.069Z,28.15
2022-08-16T11:27:24.114Z,28.16
2022-08-16T11:30:00.321Z,28.22
2022-08-16T11:32:32.208Z,28.29
2022-08-16T11:38:47.055Z,28.64
2022-08-16T11:41:08.936Z,28.93
2022-08-16T11:43:41.841Z,29.07
2022-08-16T11:46:45.181Z,29.08
2022-08-16T11:49:11.220Z,29.26
2022-08-16T11:51:44.733Z,29.33
2022-08-16T11:54:21.132Z,29.51
2022-08-16T11:56:56.783Z,29.54
2022-08-16T11:59:28.682Z,29.80
2022-08-16T12:02:30.566Z,29.79
2022-08-16T12:04:51.652Z,29.78
2022-08-16T12:07:23.676Z,29.99
2022-08-16T12:09:54.005Z,30.11
2022-08-16T12:12:23.583Z,30.32
2022-08-16T12:15:00.108Z,30.36
2022-08-16T12:17:32.298Z,30.48
2022-08-16T12:20:05.408Z,30.53
2022-08-16T12:22:37.796Z,30.55
2022-08-16T12:25:17.154Z,30.76
2022-08-16T12:27:49.776Z,30.89
2022-08-16T12:30:30.308Z,30.76
2022-08-16T12:33:06.782Z,30.94
2022-08-16T12:35:39.038Z,31.23
2022-08-16T12:38:38.173Z,31.26
2022-08-16T12:40:57.134Z,31.31
2022-08-16T12:43:25.484Z,31.43
2022-08-16T12:45:56.115Z,31.57
2022-08-16T12:48:52.610Z,31.56
2022-08-16T12:51:58.796Z,31.56
2022-08-16T12:54:22.445Z,31.84
2022-08-16T12:56:50.825Z,31.88
2022-08-16T12:59:20.879Z,32.02
2022-08-16T13:01:58.151Z,31.95
2022-08-16T13:04:33.122Z,31.91
2022-08-16T13:07:08.258Z,32.05
2022-08-16T13:09:51.824Z,32.26
2022-08-16T13:12:26.661Z,32.43
2022-08-16T13:14:55.886Z,32.57
2022-08-16T13:17:29.799Z,32.61
2022-08-16T13:20:08.581Z,32.72
2022-08-16T13:22:51.665Z,32.65
2022-08-16T13:25:25.790Z,32.71
2022-08-16T13:28:15.149Z,32.98
2022-08-16T13:30:55.356Z,32.90
2022-08-16T13:33:31.674Z,33.05
2022-08-16T13:36:01.479Z,32.94
2022-08-16T13:38:36.399Z,32.93
2022-08-16T13:41:09.537Z,32.99
2022-08-16T13:43:39.218Z,33.04
2022-08-16T13:46:08.324Z,33.46
2022-08-16T13:48:44.060Z,33.26
2022-08-16T13:51:18.938Z,33.34
2022-08-16T13:54:02.769Z,33.45
2022-08-16T13:56:37.978Z,33.48
2022-08-16T13:59:20.287Z,33.49
2022-08-16T14:02:02.809Z,33.71
2022-08-16T14:04:38.260Z,33.71
2022-08-16T14:07:20.168Z,33.84
2022-08-16T14:09:55.063Z,34.04
2022-08-16T14:12:33.754Z,34.02
2022-08-16T14:15:01.572Z,34.15
2022-08-16T14:17:31.243Z,34.17
2022-08-16T14:20:19.268Z,34.11
2022-08-16T14:22:46.969Z,33.92
2022-08-16T14:25:23.148Z,34.23
2022-08-16T14:27:52.205Z,34.00
2022-08-16T14:30:24.683Z,33.85
2022-08-16T14:32:53.867Z,34.28
2022-08-16T14:35:36.452Z,34.27
2022-08-16T14:38:18.288Z,34.28
2022-08-16T14:40:54.756Z,34.24
2022-08-16T14:43:25.446Z,34.02
2022-08-16T14:45:54.692Z,34.04
2022-08-16T14:48:26.401Z,34.35
2022-08-16T14:50:55.718Z,34.44
2022-08-16T14:53:26.410Z,34.49
2022-08-16T14:55:54.741Z,34.65
2022-08-16T14:58:34.822Z,34.79
2022-08-16T15:01:09.821Z,34.33
2022-08-16T15:03:38.032Z,34.51
2022-08-16T15:06:08.477Z,34.51
2022-08-16T15:08:40.567Z,34.67
2022-08-16T15:11:10.071Z,34.76
2022-08-16T15:13:37.835Z,34.80
2022-08-16T15:16:06.944Z,34.54
2022-08-16T15:18:34.646Z,34.63
2022-08-16T15:21:04.792Z,34.67
2022-08-16T15:23:34.318Z,34.62
2022-08-16T15:26:04.056Z,34.80
2022-08-16T15:28:38.860Z,34.67
2022-08-16T15:31:13.165Z,34.68
2022-08-16T15:33:56.454Z,34.65
2022-08-16T15:36:26.421Z,34.90
2022-08-16T15:39:05.873Z,34.27
2022-08-16T15:41:47.039Z,34.45
2022-08-16T15:44:23.681Z,34.44
2022-08-16T15:46:58.941Z,34.47
2022-08-16T15:49:34.700Z,34.52
2022-08-16T15:52:29.763Z,34.57
2022-08-16T15:55:12.830Z,34.07
2022-08-16T15:57:51.580Z,34.55
2022-08-16T16:00:20.749Z,34.48
2022-08-16T16:02:49.384Z,34.39
2022-08-16T16:05:18.906Z,34.23
2022-08-16T16:07:56.700Z,34.31
2022-08-16T16:10:37.323Z,34.16
2022-08-16T16:13:12.672Z,34.08
2022-08-16T16:15:47.865Z,34.22
2022-08-16T16:18:18.388Z,33.69
2022-08-16T16:20:55.541Z,33.78
2022-08-16T16:23:33.978Z,33.87
2022-08-16T16:26:05.833Z,33.81
2022-08-16T16:29:06.165Z,33.91
2022-08-16T16:31:23.167Z,33.83
2022-08-16T16:33:55.966Z,33.70
2022-08-16T16:36:29.391Z,33.94
2022-08-16T16:38:57.150Z,33.63
2022-08-16T16:41:28.208Z,33.63
2022-08-16T16:43:57.512Z,33.32
2022-08-16T16:46:41.123Z,33.33
2022-08-16T16:49:14.543Z,33.20
2022-08-16T16:51:44.934Z,33.17
2022-08-16T16:54:28.045Z,33.15
2022-08-16T16:56:58.335Z,33.35
2022-08-16T16:59:28.217Z,33.05
2022-08-16T17:02:41.454Z,32.91
2022-08-16T17:04:48.148Z,32.90
2022-08-16T17:07:17.609Z,32.83
2022-08-16T17:09:48.173Z,32.85
2022-08-16T17:12:25.324Z,32.75
2022-08-16T17:15:03.506Z,32.69
2022-08-16T17:17:36.189Z,32.77
2022-08-16T17:20:20.501Z,32.46
2022-08-16T17:22:55.969Z,32.45
2022-08-16T17:25:26.052Z,32.33
2022-08-16T17:30:55.390Z,32.09
2022-08-16T17:33:22.730Z,31.96
2022-08-16T17:35:55.694Z,31.90
2022-08-16T17:38:38.631Z,31.86
2022-08-16T17:39:28.133Z,32.08
2022-08-16T17:41:11.762Z,31.78
2022-08-16T17:43:43.830Z,31.61
2022-08-16T17:46:41.376Z,31.54
2022-08-16T17:49:05.080Z,31.58
2022-08-16T17:51:34.164Z,31.40
2022-08-16T17:54:03.378Z,31.42
2022-08-16T17:56:31.520Z,31.33
2022-08-16T17:58:58.844Z,31.23
2022-08-16T18:01:28.798Z,31.12
2022-08-16T18:04:07.803Z,30.89
2022-08-16T18:06:39.800Z,30.58
2022-08-16T18:09:08.656Z,30.37
2022-08-16T18:11:42.958Z,30.29
2022-08-16T18:14:15.842Z,30.15
2022-08-16T18:16:45.528Z,30.13
2022-08-16T18:19:12.886Z,29.81
2022-08-16T18:21:59.706Z,29.69
2022-08-16T18:24:29.015Z,29.57
2022-08-16T18:26:56.521Z,29.39
2022-08-16T18:29:45.398Z,29.45
2022-08-16T18:32:13.907Z,29.33
2022-08-16T18:34:43.004Z,29.43
2022-08-16T18:37:11.028Z,29.39
2022-08-16T18:39:38.710Z,29.34
2022-08-16T18:42:14.712Z,29.55
2022-08-16T18:44:44.259Z,29.33
2022-08-16T18:47:11.693Z,29.29
2022-08-16T18:49:39.189Z,29.11
2022-08-16T18:52:06.593Z,29.14
2022-08-16T18:55:03.147Z,29.03
2022-08-16T18:57:21.989Z,28.94
2022-08-16T18:59:49.328Z,29.05
2022-08-16T19:02:56.034Z,29.07
2022-08-16T19:05:26.639Z,29.03
2022-08-16T19:07:53.970Z,28.90
2022-08-16T19:10:22.406Z,28.87
2022-08-16T19:12:50.043Z,28.76
2022-08-16T19:15:26.296Z,28.73
2022-08-16T19:17:55.603Z,28.61
2022-08-16T19:20:27.133Z,28.60
2022-08-16T19:23:05.667Z,28.57
2022-08-16T19:25:49.432Z,28.49
2022-08-16T19:28:51.553Z,28.55
2022-08-16T19:31:33.240Z,28.48
2022-08-16T19:34:02.374Z,28.44
2022-08-16T19:36:39.118Z,28.27
2022-08-16T19:39:15.187Z,28.23
2022-08-16T19:41:53.220Z,28.11
2022-08-16T19:44:23.323Z,28.08
2022-08-16T19:46:51.505Z,28.12
2022-08-16T19:49:18.943Z,27.86
2022-08-16T19:51:47.953Z,27.81
2022-08-16T19:54:16.321Z,27.80
2022-08-16T19:56:43.964Z,27.78
2022-08-16T19:59:21.129Z,27.69
2022-08-16T20:01:52.405Z,27.68
2022-08-16T20:04:22.348Z,27.71
2022-08-16T20:06:52.538Z,27.67
2022-08-16T20:09:22.657Z,27.60
2022-08-16T20:11:53.631Z,27.31
2022-08-16T20:14:26.277Z,27.49
2022-08-16T20:16:59.887Z,27.40
2022-08-16T20:19:36.229Z,27.24
2022-08-16T20:22:52.925Z,27.32
2022-08-16T20:25:33.529Z,27.21
2022-08-16T20:28:09.131Z,27.12
2022-08-16T20:30:36.789Z,26.96
2022-08-16T20:33:14.155Z,26.89
2022-08-16T20:35:44.405Z,26.75
2022-08-16T20:38:14.080Z,26.99
2022-08-16T20:40:41.992Z,27.14
2022-08-16T20:43:16.278Z,26.73
2022-08-16T20:45:47.064Z,26.80
2022-08-16T20:48:15.137Z,26.63
2022-08-16T20:50:43.073Z,26.59
2022-08-16T20:53:11.570Z,26.66
2022-08-16T20:55:40.350Z,26.70
2022-08-16T20:58:07.887Z,26.37
2022-08-16T21:00:35.336Z,26.54
2022-08-16T21:03:12.678Z,26.46
2022-08-16T21:05:40.440Z,26.39
2022-08-16T21:08:34.421Z,26.37
2022-08-16T21:10:56.890Z,26.25
2022-08-16T21:13:25.685Z,26.36
2022-08-16T21:15:53.333Z,26.20
2022-08-16T21:18:20.663Z,26.27
2022-08-16T21:20:48.338Z,26.27
2022-08-16T21:23:16.298Z,26.11
2022-08-16T21:25:52.756Z,26.01
2022-08-16T21:28:41.021Z,25.98
2022-08-16T21:31:13.118Z,26.01
2022-08-16T21:33:40.817Z,26.01
2022-08-16T21:36:09.104Z,25.94
2022-08-16T21:38:36.497Z,25.90
2022-08-16T21:41:07.549Z,25.44
2022-08-16T21:43:35.207Z,25.70
2022-08-16T21:46:05.764Z,25.75
2022-08-16T21:48:36.382Z,25.68
2022-08-16T21:51:16.185Z,25.70
2022-08-16T21:53:44.417Z,25.69
2022-08-16T21:56:16.601Z,25.81
2022-08-16T21:58:52.432Z,25.68
2022-08-16T22:01:24.672Z,25.56
2022-08-16T22:04:35.258Z,25.55
2022-08-16T22:06:42.480Z,25.54
2022-08-16T22:09:15.270Z,25.59
2022-08-16T22:11:43.941Z,25.71
2022-08-16T22:14:11.421Z,25.51
2022-08-16T22:16:42.589Z,25.45
2022-08-16T22:19:11.607Z,25.45
2022-08-16T22:21:39.170Z,25.27
2022-08-16T22:24:07.340Z,25.38
2022-08-16T22:26:42.845Z,25.43
2022-08-16T22:29:14.977Z,25.43
2022-08-16T22:31:44.126Z,25.35
2022-08-16T22:34:13.836Z,25.29
2022-08-16T22:36:41.246Z,25.27
2022-08-16T22:39:14.759Z,25.47
2022-08-16T22:41:45.607Z,25.15
2022-08-16T22:44:13.393Z,25.36
2022-08-16T22:46:41.171Z,25.19
2022-08-16T22:49:09.998Z,25.27
2022-08-16T22:51:39.430Z,25.29
2022-08-16T22:54:40.984Z,25.37
2022-08-16T22:56:57.322Z,25.34
2022-08-16T22:59:25.236Z,25.22
2022-08-16T23:01:53.642Z,25.20
2022-08-16T23:04:21.356Z,25.18
2022-08-16T23:06:49.122Z,25.01
2022-08-16T23:09:16.497Z,25.08
2022-08-16T23:11:43.821Z,25.15
2022-08-16T23:14:11.216Z,25.04
2022-08-16T23:16:38.786Z,25.02
2022-08-16T23:19:13.975Z,25.07
2022-08-16T23:21:48.363Z,25.22
2022-08-16T23:24:21.409Z,25.01
2022-08-16T23:26:49.704Z,25.12
2022-08-16T23:29:24.013Z,25.18
2022-08-16T23:32:08.694Z,24.45
2022-08-16T23:34:36.725Z,24.47
2022-08-16T23:37:04.052Z,24.16
2022-08-16T23:39:31.408Z,24.00
2022-08-16T23:41:59.029Z,24.54
2022-08-16T23:44:55.377Z,24.67
2022-08-16T23:47:13.638Z,24.53
2022-08-16T23:49:56.292Z,24.87
2022-08-16T23:52:45.724Z,24.85
2022-08-16T23:55:17.549Z,24.93
2022-08-16T23:57:46.859Z,24.98
